Time;durP1;ratioP1;P1;durP2;ratioP2;P2;SDS_P1;SDS_P2;PMS_P1;PMS_P2;Temp;Humidity;BMP_temperature;BMP_pressure;BME280_temperature;BME280_humidity;BME280_pressure;Samples;Min_cycle;Max_cycle;Signal;HPM_P1;HPM_P2
2022/12/29 00:01:18;;;;;;;0.10;0.10;;;11.00;99.90;;;;;;5061324;28;20568;-80
2022/12/29 00:03:46;;;;;;;0.10;0.10;;;11.10;99.90;;;;;;5076892;28;20252;-80
2022/12/29 00:06:11;;;;;;;0.10;0.10;;;11.10;99.90;;;;;;5061566;28;20643;-80
2022/12/29 00:08:40;;;;;;;0.10;0.10;;;11.10;99.90;;;;;;5060759;28;20212;-80
2022/12/29 00:11:11;;;;;;;0.10;0.10;;;11.10;99.90;;;;;;5061625;28;20240;-81
2022/12/29 00:16:21;;;;;;;0.10;0.10;;;11.10;99.90;;;;;;5060382;28;20242;-80
2022/12/29 00:18:47;;;;;;;0.10;0.10;;;11.20;99.90;;;;;;5059216;28;20185;-81
2022/12/29 00:35:26;;;;;;;0.10;0.10;;;11.10;99.90;;;;;;5059765;28;20270;-80
2022/12/29 00:46:06;;;;;;;0.10;0.10;;;11.20;99.90;;;;;;5060320;28;20196;-80
2022/12/29 00:51:15;;;;;;;0.10;0.10;;;11.20;99.90;;;;;;5059919;28;20255;-81
2022/12/29 00:53:41;;;;;;;0.10;0.10;;;11.20;99.90;;;;;;5073496;28;20681;-79
2022/12/29 00:56:07;;;;;;;0.10;0.10;;;11.10;99.90;;;;;;5074346;28;20284;-81
2022/12/29 00:58:32;;;;;;;0.03;0.03;;;11.20;99.90;;;;;;5062096;28;20216;-80
2022/12/29 01:01:03;;;;;;;0.10;0.10;;;11.20;99.90;;;;;;5075556;28;20197;-81
2022/12/29 01:03:28;;;;;;;0.10;0.10;;;11.20;99.90;;;;;;5075424;28;20222;-81
2022/12/29 01:05:54;;;;;;;0.10;0.10;;;11.10;99.90;;;;;;5075130;28;20189;-81
2022/12/29 01:08:19;;;;;;;0.10;0.10;;;11.20;99.90;;;;;;5075618;28;20544;-81
2022/12/29 01:10:45;;;;;;;0.10;0.10;;;11.10;99.90;;;;;;5074874;28;20561;-80
2022/12/29 01:13:10;;;;;;;0.10;0.10;;;11.10;99.90;;;;;;5075525;28;20181;-80
2022/12/29 01:15:36;;;;;;;0.10;0.10;;;11.10;99.90;;;;;;5060158;28;20184;-81
2022/12/29 01:18:01;;;;;;;0.10;0.10;;;11.10;99.90;;;;;;5076432;28;20195;-81
2022/12/29 01:20:28;;;;;;;0.10;0.10;;;11.10;99.90;;;;;;5072817;28;20197;-81
2022/12/29 01:22:54;;;;;;;0.10;0.10;;;11.10;99.90;;;;;;5073608;28;20182;-80
2022/12/29 01:25:20;;;;;;;0.10;0.10;;;11.10;99.90;;;;;;5058836;28;20185;-80
2022/12/29 01:27:45;;;;;;;0.10;0.10;;;11.10;99.90;;;;;;5060589;28;20204;-80
2022/12/29 01:30:11;;;;;;;0.10;0.10;;;11.10;99.90;;;;;;5061326;28;20182;-80
2022/12/29 01:32:37;;;;;;;0.00;0.00;;;11.00;99.90;;;;;;5072894;28;20897;-81
2022/12/29 01:35:03;;;;;;;0.10;0.10;;;11.00;99.90;;;;;;5075216;28;20197;-80
2022/12/29 01:37:28;;;;;;;0.10;0.10;;;11.00;99.90;;;;;;5058085;28;20174;-80
2022/12/29 01:39:54;;;;;;;0.10;0.10;;;11.00;99.90;;;;;;5073566;28;20199;-81
2022/12/29 01:42:24;;;;;;;0.10;0.10;;;11.00;99.90;;;;;;5054214;28;20544;-81
2022/12/29 01:44:57;;;;;;;0.10;0.10;;;11.00;99.90;;;;;;5072921;28;20251;-81
2022/12/29 01:47:29;;;;;;;0.10;0.10;;;11.00;99.90;;;;;;5058863;28;20785;-80
2022/12/29 01:49:57;;;;;;;0.10;0.10;;;11.00;99.90;;;;;;5059799;28;20195;-81
2022/12/29 01:52:26;;;;;;;0.10;0.10;;;11.00;99.90;;;;;;5072036;28;20209;-81
2022/12/29 01:54:55;;;;;;;0.10;0.10;;;11.00;99.90;;;;;;5075086;28;20311;-80
2022/12/29 01:57:30;;;;;;;0.10;0.10;;;11.00;99.90;;;;;;5057081;28;20246;-80
2022/12/29 02:00:08;;;;;;;0.10;0.10;;;11.00;99.90;;;;;;5072442;28;20180;-80
2022/12/29 02:02:34;;;;;;;0.10;0.10;;;11.00;99.90;;;;;;5055890;28;20184;-80
2022/12/29 02:05:05;;;;;;;0.10;0.10;;;11.00;99.90;;;;;;5060469;28;20204;-80
2022/12/29 02:07:31;;;;;;;0.10;0.10;;;11.00;99.90;;;;;;5058742;28;20189;-81
2022/12/29 02:09:57;;;;;;;0.10;0.10;;;11.00;99.90;;;;;;5056693;28;20197;-80
2022/12/29 02:12:23;;;;;;;0.10;0.10;;;11.00;99.90;;;;;;5059804;28;20224;-80
2022/12/29 02:14:55;;;;;;;0.10;0.10;;;11.00;99.90;;;;;;5073393;28;20685;-80
2022/12/29 02:17:39;;;;;;;0.00;0.00;;;11.00;99.90;;;;;;5057274;28;20209;-81
2022/12/29 02:20:39;;;;;;;0.10;0.10;;;11.00;99.90;;;;;;5074077;28;20178;-80
2022/12/29 02:23:07;;;;;;;0.10;0.10;;;11.00;99.90;;;;;;5059628;28;20215;-80
2022/12/29 02:25:40;;;;;;;0.10;0.10;;;11.00;99.90;;;;;;5071731;28;20208;-81
2022/12/29 02:28:24;;;;;;;0.10;0.10;;;11.00;99.90;;;;;;5071112;28;20971;-81
2022/12/29 02:31:04;;;;;;;0.10;0.10;;;10.90;99.90;;;;;;5074651;28;20213;-80
2022/12/29 02:33:59;;;;;;;2.27;1.10;;;10.90;99.90;;;;;;5057547;28;20185;-80
2022/12/29 02:36:37;;;;;;;0.10;0.10;;;10.90;99.90;;;;;;5057974;28;20555;-80
2022/12/29 02:39:17;;;;;;;0.10;0.10;;;10.90;99.90;;;;;;5058014;28;20192;-80
2022/12/29 02:42:09;;;;;;;0.10;0.10;;;10.90;99.90;;;;;;5071567;28;20208;-80
2022/12/29 02:44:48;;;;;;;0.10;0.10;;;10.90;99.90;;;;;;5057719;28;21378;-81
2022/12/29 02:47:22;;;;;;;0.03;0.03;;;10.90;99.90;;;;;;5058078;28;20185;-80
2022/12/29 02:49:57;;;;;;;0.10;0.10;;;10.90;99.90;;;;;;5071355;28;20198;-80
2022/12/29 02:52:31;;;;;;;0.10;0.10;;;10.90;99.90;;;;;;5069707;28;20315;-81
2022/12/29 02:54:58;;;;;;;0.10;0.10;;;10.90;99.90;;;;;;5070864;28;20219;-80
2022/12/29 02:57:26;;;;;;;0.10;0.10;;;10.90;99.90;;;;;;5057646;28;20204;-81
2022/12/29 03:00:11;;;;;;;0.03;0.03;;;11.00;99.90;;;;;;5070836;28;20268;-80
2022/12/29 03:03:16;;;;;;;0.10;0.10;;;10.90;99.90;;;;;;5056185;28;20303;-80
2022/12/29 03:05:56;;;;;;;0.10;0.10;;;11.00;99.90;;;;;;5053310;28;20192;-80
2022/12/29 03:08:48;;;;;;;0.10;0.10;;;11.00;99.90;;;;;;5054115;28;20207;-81
2022/12/29 03:17:18;;;;;;;0.10;0.10;;;11.00;99.90;;;;;;5056426;28;20188;-81
2022/12/29 03:19:51;;;;;;;0.10;0.10;;;11.00;99.90;;;;;;5055191;28;20279;-81
2022/12/29 03:22:30;;;;;;;0.10;0.10;;;11.00;99.90;;;;;;5054450;28;20212;-81
2022/12/29 03:25:07;;;;;;;0.10;0.10;;;11.00;99.90;;;;;;5055085;28;20251;-81
2022/12/29 03:27:39;;;;;;;0.10;0.10;;;11.00;99.90;;;;;;5053901;28;20215;-80
2022/12/29 03:30:06;;;;;;;0.10;0.10;;;11.10;99.90;;;;;;5052895;28;20276;-81
2022/12/29 03:32:41;;;;;;;0.10;0.10;;;11.10;99.90;;;;;;5057010;28;20185;-81
2022/12/29 03:35:09;;;;;;;0.10;0.10;;;11.10;99.90;;;;;;5058151;28;21173;-81
2022/12/29 03:37:40;;;;;;;0.10;0.10;;;11.20;99.90;;;;;;5073554;28;20180;-81
2022/12/29 03:40:06;;;;;;;0.10;0.10;;;11.20;99.90;;;;;;5059219;28;20215;-81
2022/12/29 03:42:35;;;;;;;0.10;0.10;;;11.20;99.90;;;;;;5057900;28;20200;-80
2022/12/29 03:45:01;;;;;;;0.10;0.10;;;11.20;99.90;;;;;;5057407;28;20220;-81
2022/12/29 03:47:26;;;;;;;0.10;0.10;;;11.20;99.90;;;;;;5059163;28;20238;-80
2022/12/29 03:49:52;;;;;;;0.10;0.10;;;11.20;99.90;;;;;;5075570;28;20660;-81
2022/12/29 03:52:18;;;;;;;0.03;0.03;;;11.20;99.90;;;;;;5059261;28;20208;-81
2022/12/29 03:54:44;;;;;;;0.10;0.10;;;11.20;99.90;;;;;;5074107;28;20703;-80
2022/12/29 03:57:10;;;;;;;0.10;0.10;;;11.10;99.90;;;;;;5058105;28;20544;-81
2022/12/29 03:59:36;;;;;;;0.10;0.10;;;11.20;99.90;;;;;;5061282;28;20338;-81
2022/12/29 04:02:01;;;;;;;0.10;0.10;;;11.20;99.90;;;;;;5073599;28;21053;-80
2022/12/29 04:04:27;;;;;;;0.10;0.10;;;11.20;99.90;;;;;;5055580;28;20186;-80
2022/12/29 04:06:52;;;;;;;0.10;0.10;;;11.20;99.90;;;;;;5070770;28;20210;-81
2022/12/29 04:09:18;;;;;;;0.10;0.10;;;11.20;99.90;;;;;;5058058;28;20203;-81
2022/12/29 04:11:43;;;;;;;0.10;0.10;;;11.30;99.90;;;;;;5055762;28;20229;-80
2022/12/29 04:14:09;;;;;;;0.10;0.10;;;11.30;99.90;;;;;;5073257;28;20240;-81
2022/12/29 04:16:35;;;;;;;0.10;0.10;;;11.40;99.90;;;;;;5071735;28;20567;-80
2022/12/29 04:19:01;;;;;;;0.10;0.10;;;11.40;99.90;;;;;;5059882;28;20205;-81
2022/12/29 04:21:27;;;;;;;0.10;0.10;;;11.40;99.90;;;;;;5055922;28;20209;-80
2022/12/29 04:23:52;;;;;;;0.10;0.10;;;11.40;99.90;;;;;;5071454;28;20212;-81
2022/12/29 04:26:18;;;;;;;0.10;0.10;;;11.40;99.90;;;;;;5054188;28;20209;-80
2022/12/29 04:28:43;;;;;;;0.10;0.10;;;11.40;99.90;;;;;;5060280;28;20670;-81
2022/12/29 04:31:09;;;;;;;0.10;0.10;;;11.40;99.90;;;;;;5074412;28;20208;-80
2022/12/29 04:33:34;;;;;;;0.10;0.10;;;11.50;99.90;;;;;;5059220;28;20189;-82
2022/12/29 04:36:00;;;;;;;0.10;0.10;;;11.50;99.90;;;;;;5059371;28;20207;-80
2022/12/29 04:38:25;;;;;;;0.10;0.10;;;11.50;99.90;;;;;;5062041;28;20188;-80
2022/12/29 04:40:51;;;;;;;0.10;0.10;;;11.50;99.90;;;;;;5059217;28;20208;-82
2022/12/29 04:43:19;;;;;;;0.10;0.10;;;11.60;99.90;;;;;;5059608;28;20192;-81
2022/12/29 04:45:46;;;;;;;0.10;0.10;;;11.60;99.90;;;;;;5058437;28;20203;-81
2022/12/29 04:48:12;;;;;;;0.10;0.10;;;11.60;99.90;;;;;;5060362;28;20190;-81
2022/12/29 04:50:38;;;;;;;0.10;0.10;;;11.60;99.90;;;;;;5058656;28;20205;-81
2022/12/29 04:53:04;;;;;;;0.10;0.10;;;11.60;99.90;;;;;;5076734;28;20197;-81
2022/12/29 04:55:29;;;;;;;0.10;0.10;;;11.60;99.90;;;;;;5061594;28;20210;-80
2022/12/29 04:57:55;;;;;;;0.10;0.10;;;11.60;99.90;;;;;;5074620;28;20193;-80
2022/12/29 05:00:21;;;;;;;0.10;0.10;;;11.70;99.90;;;;;;5058720;28;20190;-80
2022/12/29 05:02:46;;;;;;;0.53;0.53;;;11.70;99.90;;;;;;5075030;28;20189;-81
2022/12/29 05:05:12;;;;;;;0.10;0.10;;;11.70;99.90;;;;;;5072174;28;20698;-81
2022/12/29 05:07:38;;;;;;;0.10;0.10;;;11.60;99.90;;;;;;5058817;28;20185;-81
2022/12/29 05:10:04;;;;;;;0.10;0.10;;;11.60;99.90;;;;;;5074143;28;20896;-80
2022/12/29 05:12:31;;;;;;;0.10;0.10;;;11.60;99.90;;;;;;5058175;28;20181;-80
2022/12/29 05:14:56;;;;;;;0.10;0.10;;;11.60;99.90;;;;;;5071223;28;20398;-80
2022/12/29 05:17:22;;;;;;;0.10;0.10;;;11.60;99.90;;;;;;5070472;28;20181;-81
2022/12/29 05:19:47;;;;;;;0.10;0.10;;;11.50;99.90;;;;;;5071475;28;20181;-79
2022/12/29 05:22:14;;;;;;;0.10;0.10;;;11.50;99.90;;;;;;5054342;28;20808;-79
2022/12/29 05:24:39;;;;;;;0.10;0.10;;;11.40;99.90;;;;;;5056206;28;20200;-80
2022/12/29 05:27:05;;;;;;;0.10;0.10;;;11.40;99.90;;;;;;5071020;28;20197;-80
2022/12/29 05:29:30;;;;;;;0.10;0.10;;;11.40;99.90;;;;;;5047648;28;20189;-80
2022/12/29 05:31:56;;;;;;;0.10;0.10;;;11.30;99.90;;;;;;5054125;28;20245;-80
2022/12/29 05:34:21;;;;;;;0.10;0.10;;;11.30;99.90;;;;;;5069237;28;20223;-81
2022/12/29 05:36:47;;;;;;;0.10;0.10;;;11.30;99.90;;;;;;5058129;28;20188;-79
2022/12/29 05:39:12;;;;;;;0.00;0.00;;;11.30;99.90;;;;;;5071288;28;20265;-79
2022/12/29 05:41:38;;;;;;;0.10;0.10;;;11.30;99.90;;;;;;5068105;28;20287;-81
2022/12/29 05:44:03;;;;;;;0.10;0.10;;;11.20;99.90;;;;;;5070315;28;20196;-80
2022/12/29 05:46:29;;;;;;;0.10;0.10;;;11.20;99.90;;;;;;5068705;28;20193;-79
2022/12/29 05:48:55;;;;;;;0.10;0.10;;;11.20;99.90;;;;;;5053662;28;20189;-80
2022/12/29 05:51:20;;;;;;;0.10;0.10;;;11.20;99.90;;;;;;5055734;28;20209;-80
2022/12/29 05:53:46;;;;;;;0.10;0.10;;;11.20;99.90;;;;;;5067576;28;20300;-79
2022/12/29 05:56:11;;;;;;;0.10;0.10;;;11.30;99.90;;;;;;5069237;28;20301;-79
2022/12/29 05:58:37;;;;;;;0.10;0.10;;;11.30;99.90;;;;;;5070421;28;20667;-81
2022/12/29 06:01:02;;;;;;;0.10;0.10;;;11.30;99.90;;;;;;5070438;28;20197;-81
2022/12/29 06:03:28;;;;;;;0.10;0.10;;;11.30;99.90;;;;;;5053097;28;20530;-81
2022/12/29 06:05:53;;;;;;;0.10;0.10;;;11.30;99.90;;;;;;5068805;28;20297;-81
2022/12/29 06:08:19;;;;;;;0.10;0.10;;;11.30;99.90;;;;;;5058456;28;20196;-81
2022/12/29 06:10:44;;;;;;;0.10;0.10;;;11.30;99.90;;;;;;5058542;28;21163;-80
2022/12/29 06:13:10;;;;;;;0.10;0.10;;;11.40;99.90;;;;;;5059883;28;20189;-81
2022/12/29 06:15:35;;;;;;;0.10;0.10;;;11.40;99.90;;;;;;5076374;28;20651;-80
2022/12/29 06:18:01;;;;;;;0.10;0.10;;;11.40;99.90;;;;;;5059087;28;20200;-80
2022/12/29 06:20:27;;;;;;;0.10;0.10;;;11.40;99.90;;;;;;5057475;28;20216;-81
2022/12/29 06:22:52;;;;;;;0.10;0.10;;;11.40;99.90;;;;;;5060477;28;20208;-80
2022/12/29 06:25:18;;;;;;;0.10;0.10;;;11.40;99.90;;;;;;5074170;28;20215;-81
2022/12/29 06:27:44;;;;;;;0.10;0.10;;;11.40;99.90;;;;;;5072454;28;20185;-81
2022/12/29 06:30:10;;;;;;;0.10;0.10;;;11.50;99.90;;;;;;5073508;28;20194;-82
2022/12/29 06:32:36;;;;;;;0.10;0.10;;;11.40;99.90;;;;;;5072811;28;20189;-82
2022/12/29 06:35:03;;;;;;;0.10;0.10;;;11.40;99.90;;;;;;5059090;28;20216;-81
2022/12/29 06:37:28;;;;;;;0.10;0.10;;;11.40;99.90;;;;;;5058513;28;20182;-80
2022/12/29 06:39:54;;;;;;;0.10;0.10;;;11.50;99.90;;;;;;5074451;28;20190;-81
2022/12/29 06:42:19;;;;;;;0.10;0.10;;;11.50;99.90;;;;;;5055130;28;20202;-81
2022/12/29 06:44:45;;;;;;;0.10;0.10;;;11.50;99.90;;;;;;5072251;28;20196;-82
2022/12/29 06:47:11;;;;;;;0.10;0.10;;;11.50;99.90;;;;;;5069968;28;20193;-80
2022/12/29 06:49:36;;;;;;;0.10;0.10;;;11.40;99.90;;;;;;5051925;28;20189;-81
2022/12/29 06:52:04;;;;;;;0.10;0.10;;;11.40;99.90;;;;;;5068779;28;20209;-81
2022/12/29 06:54:30;;;;;;;0.10;0.10;;;11.30;99.90;;;;;;5069344;28;20217;-82
2022/12/29 06:56:55;;;;;;;0.10;0.10;;;11.30;99.90;;;;;;5067336;28;20578;-81
2022/12/29 06:59:21;;;;;;;0.10;0.10;;;11.30;99.90;;;;;;5067288;28;20190;-80
2022/12/29 07:01:46;;;;;;;0.10;0.10;;;11.30;99.90;;;;;;5048393;28;20239;-81
2022/12/29 07:04:12;;;;;;;0.10;0.10;;;11.20;99.90;;;;;;5051890;28;20211;-81
2022/12/29 07:06:37;;;;;;;0.10;0.10;;;11.20;99.90;;;;;;5057827;28;20177;-81
2022/12/29 07:09:04;;;;;;;0.10;0.10;;;11.30;99.90;;;;;;5057090;28;20181;-81
2022/12/29 07:11:29;;;;;;;0.10;0.10;;;11.30;99.90;;;;;;5075324;28;20213;-81
2022/12/29 07:13:56;;;;;;;0.10;0.10;;;11.30;99.90;;;;;;5079907;28;20231;-81
2022/12/29 07:16:21;;;;;;;0.10;0.10;;;11.30;99.90;;;;;;5075786;28;20174;-81
2022/12/29 07:18:47;;;;;;;0.10;0.10;;;11.40;99.90;;;;;;5062106;28;20189;-85
2022/12/29 07:21:12;;;;;;;7.97;7.17;;;11.40;99.90;;;;;;5058473;28;20197;-81
2022/12/29 07:23:38;;;;;;;0.10;0.10;;;11.40;99.90;;;;;;5061310;28;20182;-81
2022/12/29 07:26:06;;;;;;;0.10;0.10;;;11.40;99.90;;;;;;5064213;28;20185;-81
2022/12/29 07:28:33;;;;;;;0.10;0.10;;;11.50;99.90;;;;;;5060736;28;20196;-81
2022/12/29 07:30:59;;;;;;;0.10;0.10;;;11.50;99.90;;;;;;5062400;28;20214;-81
2022/12/29 07:33:25;;;;;;;0.10;0.10;;;11.50;99.90;;;;;;5074357;28;20201;-80
2022/12/29 07:35:51;;;;;;;0.10;0.10;;;11.60;99.90;;;;;;5059205;28;20659;-81
2022/12/29 07:38:16;;;;;;;0.10;0.10;;;11.50;99.90;;;;;;5062104;28;20180;-81
2022/12/29 07:40:42;;;;;;;0.10;0.10;;;11.60;99.90;;;;;;5076376;28;20620;-82
2022/12/29 07:43:08;;;;;;;0.10;0.10;;;11.60;99.90;;;;;;5059260;28;20600;-81
2022/12/29 07:45:34;;;;;;;0.10;0.10;;;11.60;99.90;;;;;;5057878;28;20182;-81
2022/12/29 07:47:59;;;;;;;0.10;0.10;;;11.60;99.90;;;;;;5068044;28;20181;-81
2022/12/29 07:50:25;;;;;;;0.10;0.10;;;11.70;99.90;;;;;;5057440;28;20513;-81
2022/12/29 07:52:50;;;;;;;0.10;0.10;;;11.70;99.90;;;;;;5042332;28;20209;-82
2022/12/29 07:55:16;;;;;;;0.10;0.10;;;11.70;99.90;;;;;;5070202;28;20205;-82
2022/12/29 07:57:42;;;;;;;0.10;0.10;;;11.70;99.90;;;;;;5057673;28;20198;-81
2022/12/29 08:00:09;;;;;;;0.07;0.07;;;11.70;99.90;;;;;;5072608;28;21162;-81
2022/12/29 08:02:35;;;;;;;0.10;0.10;;;11.70;99.90;;;;;;5058006;28;20181;-81
2022/12/29 08:05:00;;;;;;;0.10;0.10;;;11.70;99.90;;;;;;5056569;28;20256;-81
2022/12/29 08:07:26;;;;;;;0.03;0.03;;;11.70;99.90;;;;;;5074138;28;20188;-81
2022/12/29 08:09:52;;;;;;;0.10;0.10;;;11.70;99.90;;;;;;5072822;28;20186;-80
2022/12/29 08:12:17;;;;;;;0.10;0.10;;;11.70;99.90;;;;;;5073059;28;20228;-81
2022/12/29 08:14:43;;;;;;;0.10;0.10;;;11.70;99.90;;;;;;5073679;28;20262;-80
2022/12/29 08:17:08;;;;;;;0.10;0.10;;;11.70;99.90;;;;;;5072381;28;20198;-80
2022/12/29 08:19:34;;;;;;;0.10;0.10;;;11.70;99.90;;;;;;5057877;28;20805;-81
2022/12/29 08:21:59;;;;;;;0.10;0.10;;;11.70;99.90;;;;;;5055929;28;20197;-81
2022/12/29 08:24:25;;;;;;;0.10;0.10;;;11.70;99.90;;;;;;5073294;28;20200;-82
2022/12/29 08:26:50;;;;;;;0.10;0.10;;;11.70;99.90;;;;;;5058225;28;20318;-81
2022/12/29 08:29:16;;;;;;;0.10;0.10;;;11.70;99.90;;;;;;5073946;28;20182;-81
2022/12/29 08:31:42;;;;;;;0.10;0.10;;;11.70;99.90;;;;;;5060796;28;20196;-82
2022/12/29 08:34:07;;;;;;;0.10;0.10;;;11.70;99.90;;;;;;5057457;28;20291;-81
2022/12/29 08:36:33;;;;;;;0.10;0.10;;;11.80;99.90;;;;;;5063357;28;20653;-81
2022/12/29 08:38:58;;;;;;;0.10;0.10;;;11.70;99.90;;;;;;5070429;28;20182;-80
2022/12/29 08:41:24;;;;;;;0.10;0.10;;;11.70;99.90;;;;;;5056004;28;20318;-82
2022/12/29 08:43:49;;;;;;;0.00;0.00;;;11.70;99.90;;;;;;5068840;28;20208;-80
2022/12/29 08:46:16;;;;;;;0.10;0.10;;;11.70;99.90;;;;;;5069346;28;20193;-82
2022/12/29 08:48:41;;;;;;;0.10;0.10;;;11.60;99.90;;;;;;5070045;28;20189;-81
2022/12/29 08:51:07;;;;;;;0.10;0.10;;;11.60;99.90;;;;;;5053728;28;20209;-80
2022/12/29 08:53:33;;;;;;;0.10;0.10;;;11.50;99.90;;;;;;5058235;28;20557;-81
2022/12/29 08:56:00;;;;;;;0.10;0.10;;;11.60;99.90;;;;;;5055722;28;21286;-80
2022/12/29 08:58:26;;;;;;;0.10;0.10;;;11.60;99.90;;;;;;5068699;28;20205;-82
2022/12/29 09:00:56;;;;;;;0.10;0.10;;;11.50;99.90;;;;;;5053985;28;20213;-82
2022/12/29 09:03:23;;;;;;;0.10;0.10;;;11.40;99.90;;;;;;5069223;28;20204;-81
2022/12/29 09:05:53;;;;;;;0.10;0.10;;;11.40;99.90;;;;;;5054476;28;20194;-81
2022/12/29 09:08:19;;;;;;;0.10;0.10;;;11.30;99.90;;;;;;5054214;28;20185;-81
2022/12/29 09:10:45;;;;;;;0.10;0.10;;;11.40;99.90;;;;;;5050763;28;20307;-81
2022/12/29 09:13:12;;;;;;;0.10;0.10;;;11.40;99.90;;;;;;5054455;28;20272;-81
2022/12/29 09:15:38;;;;;;;0.10;0.10;;;11.40;99.90;;;;;;5066646;28;20237;-81
2022/12/29 09:18:04;;;;;;;0.10;0.10;;;11.40;99.90;;;;;;5070489;28;21054;-82
2022/12/29 09:20:30;;;;;;;0.10;0.10;;;11.40;99.90;;;;;;5070365;28;20289;-82
2022/12/29 09:22:55;;;;;;;0.10;0.10;;;11.30;99.90;;;;;;5057427;28;20594;-81
2022/12/29 09:25:24;;;;;;;0.10;0.10;;;11.40;99.90;;;;;;5055475;28;20241;-82
2022/12/29 09:27:52;;;;;;;0.10;0.10;;;11.40;99.90;;;;;;5055907;28;20200;-81
2022/12/29 09:30:17;;;;;;;0.10;0.10;;;11.30;99.90;;;;;;5055421;28;20288;-81
2022/12/29 09:32:43;;;;;;;0.10;0.10;;;11.40;99.90;;;;;;5057102;28;20269;-81
2022/12/29 09:35:08;;;;;;;0.10;0.10;;;11.30;99.90;;;;;;5054448;28;20216;-81
2022/12/29 09:37:34;;;;;;;0.10;0.10;;;11.30;99.90;;;;;;5070447;28;20670;-80
2022/12/29 09:40:00;;;;;;;0.10;0.10;;;11.30;99.90;;;;;;5052851;28;20654;-80
2022/12/29 09:42:49;;;;;;;0.10;0.10;;;11.40;99.90;;;;;;5051808;28;20197;-80
2022/12/29 09:45:43;;;;;;;0.10;0.10;;;11.40;99.90;;;;;;5055250;28;20209;-80
2022/12/29 09:48:17;;;;;;;0.10;0.10;;;11.30;99.90;;;;;;5052462;28;20741;-80
2022/12/29 09:50:48;;;;;;;0.10;0.10;;;11.30;99.90;;;;;;5054104;28;21256;-80
2022/12/29 09:53:36;;;;;;;0.10;0.10;;;11.30;99.90;;;;;;5053165;28;20186;-80
2022/12/29 09:56:03;;;;;;;0.10;0.10;;;11.40;99.90;;;;;;5049423;28;20185;-81
2022/12/29 09:58:35;;;;;;;0.03;0.03;;;11.30;99.90;;;;;;5052201;28;20232;-82
2022/12/29 10:01:20;;;;;;;0.10;0.10;;;11.30;99.90;;;;;;5055388;28;20205;-80
2022/12/29 10:03:51;;;;;;;0.10;0.10;;;11.30;99.90;;;;;;5052539;28;20266;-81
2022/12/29 10:06:24;;;;;;;0.10;0.10;;;11.30;99.90;;;;;;5054925;28;20184;-81
2022/12/29 10:09:08;;;;;;;0.10;0.10;;;11.20;99.90;;;;;;5066579;28;20200;-81
2022/12/29 10:12:09;;;;;;;0.10;0.10;;;11.20;99.90;;;;;;5068921;28;20224;-81
2022/12/29 10:14:55;;;;;;;0.10;0.10;;;11.20;99.90;;;;;;5070998;28;20193;-81
2022/12/29 10:17:26;;;;;;;0.10;0.10;;;11.20;99.90;;;;;;5055057;28;20192;-81
2022/12/29 10:20:22;;;;;;;0.10;0.10;;;11.20;99.90;;;;;;5055828;28;20650;-81
2022/12/29 10:23:01;;;;;;;0.10;0.10;;;11.30;99.90;;;;;;5052632;28;20645;-81
2022/12/29 10:25:30;;;;;;;0.10;0.10;;;11.30;99.90;;;;;;5055045;28;20858;-81
2022/12/29 10:28:01;;;;;;;0.10;0.10;;;11.20;99.90;;;;;;5049232;28;20212;-81
2022/12/29 10:30:26;;;;;;;0.10;0.10;;;11.20;99.90;;;;;;5054504;28;21727;-81
2022/12/29 10:32:59;;;;;;;0.10;0.10;;;11.30;99.90;;;;;;5066343;28;20258;-81
2022/12/29 10:35:30;;;;;;;0.10;0.10;;;11.20;99.90;;;;;;5067330;28;20229;-81
2022/12/29 10:38:01;;;;;;;0.10;0.10;;;11.30;99.90;;;;;;5068480;28;20234;-80
2022/12/29 10:40:40;;;;;;;0.10;0.10;;;11.30;99.90;;;;;;5053978;28;20205;-81
2022/12/29 10:43:26;;;;;;;0.10;0.10;;;11.30;99.90;;;;;;5052945;28;20600;-81
2022/12/29 10:45:59;;;;;;;0.10;0.10;;;11.40;99.90;;;;;;5065644;28;20180;-82
2022/12/29 10:48:32;;;;;;;0.10;0.10;;;11.40;99.90;;;;;;5051346;28;20211;-81
2022/12/29 10:50:59;;;;;;;0.10;0.10;;;11.50;99.90;;;;;;5069551;28;20214;-81
2022/12/29 10:53:44;;;;;;;0.10;0.10;;;11.60;99.90;;;;;;5066866;28;20216;-81
2022/12/29 10:56:44;;;;;;;0.10;0.10;;;11.80;99.90;;;;;;5053980;28;20609;-82
2022/12/29 10:59:22;;;;;;;0.10;0.10;;;11.90;99.90;;;;;;5038816;28;20673;-84
2022/12/29 11:02:40;;;;;;;0.10;0.10;;;12.00;99.90;;;;;;5067029;28;20213;-81
2022/12/29 11:05:30;;;;;;;0.10;0.10;;;12.20;99.90;;;;;;5055971;28;20258;-81
2022/12/29 11:08:02;;;;;;;0.10;0.10;;;12.50;99.90;;;;;;5070751;28;20292;-81
2022/12/29 11:10:33;;;;;;;0.10;0.10;;;12.80;99.90;;;;;;5055470;28;20209;-81
2022/12/29 11:13:10;;;;;;;0.10;0.10;;;12.70;99.90;;;;;;5070102;28;20200;-81
2022/12/29 11:15:45;;;;;;;0.10;0.10;;;12.60;99.90;;;;;;5048968;28;20200;-82
2022/12/29 11:18:52;;;;;;;0.10;0.10;;;12.70;99.90;;;;;;5066604;28;20173;-81
2022/12/29 11:21:30;;;;;;;0.10;0.10;;;12.60;99.90;;;;;;5048604;28;20739;-82
2022/12/29 11:24:01;;;;;;;0.10;0.10;;;12.60;99.90;;;;;;5054526;28;20268;-81
2022/12/29 11:26:29;;;;;;;0.10;0.10;;;12.70;99.90;;;;;;5068840;28;20697;-82
2022/12/29 11:29:24;;;;;;;0.10;0.10;;;12.70;99.90;;;;;;5070126;28;20188;-81
2022/12/29 11:31:58;;;;;;;0.10;0.10;;;12.70;99.90;;;;;;5071017;28;20801;-81
2022/12/29 11:34:32;;;;;;;0.10;0.10;;;12.80;99.90;;;;;;5052882;28;20204;-82
2022/12/29 11:37:01;;;;;;;0.10;0.10;;;12.90;99.90;;;;;;5052351;28;20194;-81
2022/12/29 11:39:36;;;;;;;0.00;0.00;;;13.00;99.90;;;;;;5054095;28;20182;-81
2022/12/29 11:42:03;;;;;;;0.10;0.10;;;13.10;99.90;;;;;;5055206;28;20204;-81
2022/12/29 11:44:35;;;;;;;0.10;0.10;;;13.10;99.90;;;;;;5066799;28;20272;-81
2022/12/29 11:47:01;;;;;;;0.10;0.10;;;13.20;99.90;;;;;;5054059;28;20611;-82
2022/12/29 11:49:27;;;;;;;0.10;0.10;;;13.20;99.90;;;;;;5053832;28;20280;-83
2022/12/29 11:51:56;;;;;;;0.10;0.10;;;13.30;99.90;;;;;;5053571;28;20206;-85
2022/12/29 11:54:33;;;;;;;0.10;0.10;;;13.30;99.90;;;;;;5055950;28;20278;-85
2022/12/29 11:57:13;;;;;;;0.10;0.10;;;13.50;99.90;;;;;;5057095;28;20192;-85
2022/12/29 12:00:00;;;;;;;0.10;0.10;;;13.70;99.90;;;;;;5056428;28;20189;-83
2022/12/29 12:03:07;;;;;;;0.10;0.10;;;13.70;99.90;;;;;;5073068;28;20197;-81
2022/12/29 12:05:59;;;;;;;0.10;0.10;;;14.00;99.90;;;;;;5038767;28;20758;-83
2022/12/29 12:08:48;;;;;;;0.10;0.10;;;14.00;99.90;;;;;;5055655;28;20180;-82
2022/12/29 12:11:20;;;;;;;0.10;0.10;;;13.80;99.90;;;;;;5056453;28;20211;-82
2022/12/29 12:14:17;;;;;;;0.10;0.10;;;13.70;99.90;;;;;;5075259;28;20203;-82
2022/12/29 12:16:55;;;;;;;0.10;0.10;;;13.50;99.90;;;;;;5057471;28;20212;-83
2022/12/29 12:19:34;;;;;;;0.10;0.10;;;13.50;99.90;;;;;;5060274;28;20586;-83
2022/12/29 12:22:10;;;;;;;0.10;0.10;;;13.40;99.90;;;;;;5054690;28;20201;-83
2022/12/29 12:24:47;;;;;;;0.10;0.10;;;13.30;99.90;;;;;;5059181;28;20191;-82
2022/12/29 12:27:43;;;;;;;0.10;0.10;;;13.30;99.90;;;;;;5058942;28;20910;-81
2022/12/29 12:30:17;;;;;;;0.10;0.10;;;13.10;99.90;;;;;;5059440;28;20182;-82
2022/12/29 12:33:08;;;;;;;0.10;0.10;;;13.10;99.90;;;;;;5074126;28;20549;-82
2022/12/29 12:36:18;;;;;;;0.10;0.10;;;13.20;99.90;;;;;;5056391;28;20210;-82
2022/12/29 12:39:11;;;;;;;0.10;0.10;;;13.10;99.90;;;;;;5075419;28;20190;-82
2022/12/29 12:42:06;;;;;;;0.10;0.10;;;13.00;99.90;;;;;;5070819;28;20279;-83
2022/12/29 12:44:51;;;;;;;0.10;0.10;;;12.80;99.90;;;;;;5072860;28;20686;-83
2022/12/29 12:47:19;;;;;;;0.10;0.10;;;12.80;99.90;;;;;;5052564;28;20530;-82
2022/12/29 12:49:50;;;;;;;0.10;0.10;;;12.60;99.90;;;;;;5056768;28;20216;-82
2022/12/29 12:52:28;;;;;;;0.10;0.10;;;12.60;99.90;;;;;;5070070;28;20209;-83
2022/12/29 12:55:04;;;;;;;0.10;0.10;;;12.60;99.90;;;;;;5056545;28;20200;-82
2022/12/29 12:58:07;;;;;;;0.10;0.10;;;12.60;99.90;;;;;;5058029;28;20212;-84
2022/12/29 13:00:42;;;;;;;0.10;0.10;;;12.60;99.90;;;;;;5077305;28;20204;-82
2022/12/29 13:03:34;;;;;;;0.10;0.10;;;12.70;99.90;;;;;;5076206;28;20193;-84
2022/12/29 13:06:09;;;;;;;0.10;0.10;;;13.00;99.90;;;;;;5049525;28;20654;-83
2022/12/29 13:08:40;;;;;;;0.10;0.10;;;13.30;99.90;;;;;;5057969;28;20185;-83
2022/12/29 13:11:37;;;;;;;0.10;0.10;;;13.40;99.90;;;;;;5074928;28;20236;-83
2022/12/29 13:14:33;;;;;;;0.10;0.10;;;13.50;99.90;;;;;;5059646;28;20205;-82
2022/12/29 13:17:24;;;;;;;0.10;0.10;;;13.60;99.90;;;;;;5073338;28;20228;-83
2022/12/29 13:19:59;;;;;;;0.10;0.10;;;13.90;99.90;;;;;;5058790;28;20202;-83
2022/12/29 13:22:42;;;;;;;0.10;0.10;;;14.10;99.90;;;;;;5073570;28;20203;-82
2022/12/29 13:25:40;;;;;;;0.10;0.10;;;14.10;99.90;;;;;;5064917;28;20199;-82
2022/12/29 13:28:23;;;;;;;0.10;0.10;;;14.00;99.90;;;;;;5067273;28;20191;-82
2022/12/29 13:31:16;;;;;;;0.10;0.10;;;13.80;99.90;;;;;;5077788;28;20782;-82
2022/12/29 13:34:17;;;;;;;0.10;0.10;;;13.70;99.90;;;;;;5074186;28;20275;-83
2022/12/29 13:36:52;;;;;;;0.10;0.10;;;13.50;99.90;;;;;;5070166;28;20278;-84
2022/12/29 13:39:26;;;;;;;0.10;0.10;;;13.30;99.90;;;;;;5060946;28;20189;-84
2022/12/29 13:41:55;;;;;;;0.10;0.10;;;13.30;99.90;;;;;;5072002;28;20196;-82
2022/12/29 13:44:43;;;;;;;0.00;0.00;;;13.50;99.90;;;;;;5059181;28;20201;-81